sensor_id;sensor_type;location;lat;lon;timestamp;pressure;altitude;pressure_sealevel;temperature;humidity
11519;BME280;5816;48.228;14.116;2023-12-20T05:23:28;97910.47;;;1.10;100.00
11519;BME280;5816;48.228;14.116;2023-12-20T05:28:29;97921.63;;;1.15;100.00
11519;BME280;5816;48.228;14.116;2023-12-20T05:33:31;97911.84;;;1.17;100.00
11519;BME280;5816;48.228;14.116;2023-12-20T05:38:33;97908.13;;;1.21;100.00
11519;BME280;5816;48.228;14.116;2023-12-20T05:43:34;97918.19;;;1.30;100.00
11519;BME280;5816;48.228;14.116;2023-12-20T05:48:36;97905.66;;;1.84;100.00
11519;BME280;5816;48.228;14.116;2023-12-20T05:53:38;97899.19;;;2.37;100.00
11519;BME280;5816;48.228;14.116;2023-12-20T05:58:40;97907.75;;;2.57;100.00
11519;BME280;5816;48.228;14.116;2023-12-20T06:03:42;97904.38;;;2.55;100.00
11519;BME280;5816;48.228;14.116;2023-12-20T06:08:44;97923.13;;;2.66;100.00
11519;BME280;5816;48.228;14.116;2023-12-20T06:13:52;97899.06;;;2.55;100.00
11519;BME280;5816;48.228;14.116;2023-12-20T06:18:54;97916.63;;;2.56;100.00
11519;BME280;5816;48.228;14.116;2023-12-20T06:23:56;97925.47;;;2.70;100.00
11519;BME280;5816;48.228;14.116;2023-12-20T06:28:59;97922.03;;;2.84;100.00
11519;BME280;5816;48.228;14.116;2023-12-20T06:34:00;97917.19;;;2.92;100.00
11519;BME280;5816;48.228;14.116;2023-12-20T06:39:02;97939.56;;;3.31;100.00
11519;BME280;5816;48.228;14.116;2023-12-20T06:44:06;97953.97;;;3.41;100.00
11519;BME280;5816;48.228;14.116;2023-12-20T06:49:07;97902.63;;;2.85;100.00
11519;BME280;5816;48.228;14.116;2023-12-20T06:54:09;97898.22;;;2.84;100.00
11519;BME280;5816;48.228;14.116;2023-12-20T06:59:11;97984.06;;;3.24;100.00
11519;BME280;5816;48.228;14.116;2023-12-20T07:04:13;97955.97;;;3.08;100.00
11519;BME280;5816;48.228;14.116;2023-12-20T07:09:15;97994.50;;;3.27;100.00
11519;BME280;5816;48.228;14.116;2023-12-20T07:14:17;98002.78;;;3.51;100.00
11519;BME280;5816;48.228;14.116;2023-12-20T07:19:20;98017.72;;;3.52;100.00
11519;BME280;5816;48.228;14.116;2023-12-20T07:24:21;98037.69;;;3.58;100.00
11519;BME280;5816;48.228;14.116;2023-12-20T07:29:23;98033.03;;;3.47;100.00
11519;BME280;5816;48.228;14.116;2023-12-20T07:34:25;98046.91;;;3.37;100.00
11519;BME280;5816;48.228;14.116;2023-12-20T07:39:27;98059.34;;;3.50;100.00
11519;BME280;5816;48.228;14.116;2023-12-20T07:44:28;98036.97;;;3.40;100.00
11519;BME280;5816;48.228;14.116;2023-12-20T07:49:30;98062.13;;;3.47;100.00
11519;BME280;5816;48.228;14.116;2023-12-20T07:54:33;98061.97;;;3.50;100.00
11519;BME280;5816;48.228;14.116;2023-12-20T07:59:35;98045.69;;;3.42;100.00
11519;BME280;5816;48.228;14.116;2023-12-20T08:04:37;98072.63;;;3.65;100.00
11519;BME280;5816;48.228;14.116;2023-12-20T08:09:39;98055.75;;;3.51;100.00
11519;BME280;5816;48.228;14.116;2023-12-20T08:14:40;98080.09;;;3.72;100.00
11519;BME280;5816;48.228;14.116;2023-12-20T08:19:42;98060.47;;;3.61;100.00
11519;BME280;5816;48.228;14.116;2023-12-20T08:24:44;98056.63;;;3.66;100.00
11519;BME280;5816;48.228;14.116;2023-12-20T08:29:46;98079.63;;;3.66;100.00
11519;BME280;5816;48.228;14.116;2023-12-20T08:34:47;98079.56;;;3.81;100.00
11519;BME280;5816;48.228;14.116;2023-12-20T08:39:49;98077.38;;;3.74;100.00
11519;BME280;5816;48.228;14.116;2023-12-20T08:44:51;98066.59;;;3.77;100.00
11519;BME280;5816;48.228;14.116;2023-12-20T08:49:52;98084.34;;;3.91;100.00
11519;BME280;5816;48.228;14.116;2023-12-20T08:54:59;98087.03;;;3.89;100.00
11519;BME280;5816;48.228;14.116;2023-12-20T09:00:02;98073.84;;;4.03;100.00
11519;BME280;5816;48.228;14.116;2023-12-20T09:05:06;98085.78;;;4.10;100.00
11519;BME280;5816;48.228;14.116;2023-12-20T09:10:08;98103.22;;;4.29;100.00
11519;BME280;5816;48.228;14.116;2023-12-20T09:15:19;98093.19;;;4.34;100.00
11519;BME280;5816;48.228;14.116;2023-12-20T09:20:21;98096.94;;;4.30;100.00
11519;BME280;5816;48.228;14.116;2023-12-20T09:25:25;98084.75;;;4.42;100.00
11519;BME280;5816;48.228;14.116;2023-12-20T09:30:28;98098.69;;;4.45;100.00
11519;BME280;5816;48.228;14.116;2023-12-20T09:35:30;98074.25;;;4.26;100.00
11519;BME280;5816;48.228;14.116;2023-12-20T09:40:32;98086.75;;;4.52;100.00
11519;BME280;5816;48.228;14.116;2023-12-20T09:45:35;98091.66;;;4.58;100.00
11519;BME280;5816;48.228;14.116;2023-12-20T09:50:37;98056.69;;;4.52;100.00
11519;BME280;5816;48.228;14.116;2023-12-20T09:55:41;98064.38;;;4.71;100.00
11519;BME280;5816;48.228;14.116;2023-12-20T10:00:42;98060.00;;;4.70;100.00
11519;BME280;5816;48.228;14.116;2023-12-20T10:05:44;98027.03;;;4.74;100.00
11519;BME280;5816;48.228;14.116;2023-12-20T10:10:52;98043.00;;;4.86;100.00
11519;BME280;5816;48.228;14.116;2023-12-20T10:15:55;98042.34;;;4.97;100.00
11519;BME280;5816;48.228;14.116;2023-12-20T10:20:57;98027.03;;;5.01;100.00
11519;BME280;5816;48.228;14.116;2023-12-20T10:25:59;98028.72;;;5.16;100.00
11519;BME280;5816;48.228;14.116;2023-12-20T10:31:02;98031.44;;;5.14;100.00
11519;BME280;5816;48.228;14.116;2023-12-20T10:36:05;98035.91;;;5.14;100.00
11519;BME280;5816;48.228;14.116;2023-12-20T10:41:08;98021.34;;;5.07;100.00
11519;BME280;5816;48.228;14.116;2023-12-20T10:46:11;97997.59;;;4.91;100.00
11519;BME280;5816;48.228;14.116;2023-12-20T10:51:14;98024.66;;;5.10;100.00
11519;BME280;5816;48.228;14.116;2023-12-20T10:56:19;98022.28;;;5.06;100.00
11519;BME280;5816;48.228;14.116;2023-12-20T11:01:21;98019.75;;;5.04;100.00
11519;BME280;5816;48.228;14.116;2023-12-20T11:06:45;98018.09;;;5.16;100.00
11519;BME280;5816;48.228;14.116;2023-12-20T11:12:09;98009.41;;;5.27;100.00
11519;BME280;5816;48.228;14.116;2023-12-20T11:17:14;97975.75;;;5.00;100.00
11519;BME280;5816;48.228;14.116;2023-12-20T11:22:21;97967.72;;;5.02;100.00
11519;BME280;5816;48.228;14.116;2023-12-20T11:27:23;98000.50;;;5.28;100.00
11519;BME280;5816;48.228;14.116;2023-12-20T11:37:29;97999.19;;;5.20;100.00
11519;BME280;5816;48.228;14.116;2023-12-20T11:42:39;97990.72;;;5.15;100.00
11519;BME280;5816;48.228;14.116;2023-12-20T11:47:46;97948.53;;;4.84;100.00
11519;BME280;5816;48.228;14.116;2023-12-20T11:52:51;97997.50;;;5.19;100.00
11519;BME280;5816;48.228;14.116;2023-12-20T11:57:53;97963.72;;;5.09;100.00
11519;BME280;5816;48.228;14.116;2023-12-20T12:02:58;97961.13;;;5.07;100.00
11519;BME280;5816;48.228;14.116;2023-12-20T12:08:01;97985.00;;;5.21;100.00
11519;BME280;5816;48.228;14.116;2023-12-20T12:13:05;97982.25;;;5.36;100.00
11519;BME280;5816;48.228;14.116;2023-12-20T12:18:07;97975.22;;;5.35;100.00
11519;BME280;5816;48.228;14.116;2023-12-20T12:23:11;97974.38;;;5.34;100.00
11519;BME280;5816;48.228;14.116;2023-12-20T12:28:12;97970.88;;;5.34;100.00
11519;BME280;5816;48.228;14.116;2023-12-20T12:33:14;97965.69;;;5.45;100.00
11519;BME280;5816;48.228;14.116;2023-12-20T12:38:21;97959.75;;;5.54;100.00
11519;BME280;5816;48.228;14.116;2023-12-20T12:43:29;97951.47;;;5.46;100.00
11519;BME280;5816;48.228;14.116;2023-12-20T12:48:32;97946.16;;;5.46;100.00
11519;BME280;5816;48.228;14.116;2023-12-20T12:53:44;97936.34;;;5.34;100.00
11519;BME280;5816;48.228;14.116;2023-12-20T12:58:46;97943.72;;;5.43;100.00
11519;BME280;5816;48.228;14.116;2023-12-20T13:03:47;97936.91;;;5.52;100.00
11519;BME280;5816;48.228;14.116;2023-12-20T13:08:49;97921.72;;;5.66;100.00
11519;BME280;5816;48.228;14.116;2023-12-20T13:13:51;97926.19;;;5.78;100.00
11519;BME280;5816;48.228;14.116;2023-12-20T13:18:53;97907.66;;;5.90;100.00
11519;BME280;5816;48.228;14.116;2023-12-20T13:23:54;97903.03;;;6.06;100.00
11519;BME280;5816;48.228;14.116;2023-12-20T13:28:56;97915.56;;;6.04;100.00
11519;BME280;5816;48.228;14.116;2023-12-20T13:33:58;97900.00;;;6.11;100.00
11519;BME280;5816;48.228;14.116;2023-12-20T13:38:59;97899.69;;;6.15;100.00
11519;BME280;5816;48.228;14.116;2023-12-20T13:44:01;97892.78;;;6.13;100.00
11519;BME280;5816;48.228;14.116;2023-12-20T13:49:04;97904.78;;;6.18;100.00
11519;BME280;5816;48.228;14.116;2023-12-20T13:54:06;97908.69;;;6.25;100.00
11519;BME280;5816;48.228;14.116;2023-12-20T13:59:08;97898.13;;;6.13;100.00
11519;BME280;5816;48.228;14.116;2023-12-20T14:04:10;97907.25;;;6.21;100.00
11519;BME280;5816;48.228;14.116;2023-12-20T14:09:33;97911.91;;;6.18;100.00
11519;BME280;5816;48.228;14.116;2023-12-20T14:14:35;97920.53;;;6.21;100.00
11519;BME280;5816;48.228;14.116;2023-12-20T14:19:37;97920.66;;;6.07;100.00
11519;BME280;5816;48.228;14.116;2023-12-20T14:24:39;97931.94;;;5.98;100.00
11519;BME280;5816;48.228;14.116;2023-12-20T14:29:40;97927.81;;;5.94;100.00
11519;BME280;5816;48.228;14.116;2023-12-20T14:34:42;97941.72;;;5.85;100.00
11519;BME280;5816;48.228;14.116;2023-12-20T14:39:45;97955.97;;;5.71;100.00
11519;BME280;5816;48.228;14.116;2023-12-20T14:44:53;97956.16;;;5.68;100.00
11519;BME280;5816;48.228;14.116;2023-12-20T14:49:55;97965.50;;;5.61;100.00
11519;BME280;5816;48.228;14.116;2023-12-20T14:54:57;97951.44;;;5.33;100.00
11519;BME280;5816;48.228;14.116;2023-12-20T14:59:59;97969.06;;;5.34;100.00
11519;BME280;5816;48.228;14.116;2023-12-20T15:05:07;97969.06;;;5.34;100.00
11519;BME280;5816;48.228;14.116;2023-12-20T15:10:09;97925.34;;;5.00;100.00
11519;BME280;5816;48.228;14.116;2023-12-20T15:15:11;97969.41;;;5.03;100.00
11519;BME280;5816;48.228;14.116;2023-12-20T15:20:12;97981.28;;;4.97;100.00
11519;BME280;5816;48.228;14.116;2023-12-20T15:25:15;97962.75;;;4.83;100.00
11519;BME280;5816;48.228;14.116;2023-12-20T15:30:23;97979.81;;;4.79;100.00
11519;BME280;5816;48.228;14.116;2023-12-20T15:35:27;97988.00;;;4.76;100.00
11519;BME280;5816;48.228;14.116;2023-12-20T15:40:29;97982.63;;;4.90;100.00
11519;BME280;5816;48.228;14.116;2023-12-20T15:45:31;97978.47;;;4.86;100.00
11519;BME280;5816;48.228;14.116;2023-12-20T15:50:32;97992.31;;;4.91;100.00
11519;BME280;5816;48.228;14.116;2023-12-20T15:55:34;97990.22;;;4.96;100.00
11519;BME280;5816;48.228;14.116;2023-12-20T16:00:36;97979.03;;;4.91;100.00
11519;BME280;5816;48.228;14.116;2023-12-20T16:05:38;97996.13;;;4.87;100.00
11519;BME280;5816;48.228;14.116;2023-12-20T16:10:40;97995.00;;;4.77;100.00
11519;BME280;5816;48.228;14.116;2023-12-20T16:15:41;97984.88;;;4.69;100.00
